Time;durP1;ratioP1;P1;durP2;ratioP2;P2;SDS_P1;SDS_P2;PMS_P1;PMS_P2;Temp;Humidity;BMP_temperature;BMP_pressure;BME280_temperature;BME280_humidity;BME280_pressure;Samples;Min_cycle;Max_cycle;Signal;HPM_P1;HPM_P2
2023/07/18 00:00:19;;;;;;;6.65;4.40;;;;;;;30.36;47.75;100376.50;5095069;28;20052;-78
2023/07/18 00:02:47;;;;;;;5.55;4.15;;;;;;;30.34;47.76;100368.47;5094875;28;20052;-78
2023/07/18 00:05:17;;;;;;;5.10;4.10;;;;;;;30.34;47.41;100373.13;5094661;28;20485;-78
2023/07/18 00:07:45;;;;;;;4.90;3.92;;;;;;;30.32;47.12;100378.00;5094563;28;20512;-78
2023/07/18 00:10:14;;;;;;;5.80;3.83;;;;;;;30.30;47.28;100382.84;5094678;28;20055;-78
2023/07/18 00:12:43;;;;;;;5.05;4.10;;;;;;;30.28;47.12;100369.31;5095037;28;20075;-77
2023/07/18 00:15:12;;;;;;;5.53;3.90;;;;;;;30.28;47.09;100368.47;5094796;28;20386;-77
2023/07/18 00:17:42;;;;;;;5.40;3.80;;;;;;;30.26;47.28;100376.13;5095493;28;20477;-77
2023/07/18 00:20:17;;;;;;;5.47;3.92;;;;;;;30.25;47.24;100377.19;5095285;28;20040;-78
2023/07/18 00:22:48;;;;;;;5.35;4.00;;;;;;;30.24;46.92;100372.75;5094330;28;20505;-76
2023/07/18 00:25:19;;;;;;;5.38;3.80;;;;;;;30.22;47.30;100378.47;5094332;28;20047;-78
2023/07/18 00:27:51;;;;;;;4.90;3.60;;;;;;;30.20;46.73;100381.41;5094334;28;20052;-77
2023/07/18 00:30:20;;;;;;;4.90;3.53;;;;;;;30.19;46.82;100382.47;5094260;28;20420;-77
2023/07/18 00:32:48;;;;;;;4.75;3.78;;;;;;;30.18;46.97;100378.03;5094468;28;20044;-78
2023/07/18 00:35:17;;;;;;;5.63;3.47;;;;;;;30.17;46.72;100370.84;5094269;28;20048;-77
2023/07/18 00:37:45;;;;;;;5.05;3.53;;;;;;;30.15;46.98;100364.72;5094137;28;20048;-77
2023/07/18 00:40:15;;;;;;;5.35;3.80;;;;;;;30.13;46.79;100372.38;5093949;28;20043;-77
2023/07/18 00:42:45;;;;;;;4.22;3.22;;;;;;;30.12;46.98;100370.69;5093899;28;20394;-78
2023/07/18 00:45:15;;;;;;;5.60;3.70;;;;;;;30.12;46.80;100376.19;5093946;28;20059;-77
2023/07/18 00:47:45;;;;;;;5.15;3.33;;;;;;;30.10;46.72;100366.44;5095354;28;20044;-77
2023/07/18 00:50:15;;;;;;;6.40;3.53;;;;;;;30.10;46.57;100370.03;5093381;28;20072;-77
2023/07/18 00:52:47;;;;;;;5.25;3.50;;;;;;;30.08;46.56;100366.66;5093844;28;20048;-78
2023/07/18 00:55:16;;;;;;;4.65;2.97;;;;;;;30.07;46.61;100361.38;5093748;28;20040;-78
2023/07/18 00:57:46;;;;;;;4.70;3.20;;;;;;;30.05;46.64;100358.81;5093839;28;20048;-78
2023/07/18 01:00:17;;;;;;;5.60;3.65;;;;;;;30.04;46.67;100354.38;5093465;28;20055;-78
2023/07/18 01:02:46;;;;;;;6.03;3.75;;;;;;;30.03;46.48;100360.94;5093703;28;20044;-77
2023/07/18 01:05:18;;;;;;;4.70;3.50;;;;;;;30.03;46.55;100357.34;5093688;28;20052;-78
2023/07/18 01:07:47;;;;;;;4.68;3.53;;;;;;;30.02;46.54;100359.25;5093300;28;20546;-77
2023/07/18 01:10:17;;;;;;;5.88;3.35;;;;;;;30.00;46.43;100353.09;5093179;28;20083;-78
2023/07/18 01:12:46;;;;;;;4.65;3.20;;;;;;;29.98;46.51;100349.72;5093489;28;20402;-78
2023/07/18 01:15:15;;;;;;;5.32;3.40;;;;;;;29.98;46.66;100354.41;5093742;28;20055;-77
2023/07/18 01:17:45;;;;;;;4.45;3.28;;;;;;;29.93;46.71;100350.41;5093292;28;20056;-78
2023/07/18 01:20:18;;;;;;;5.22;3.03;;;;;;;29.96;46.46;100362.88;5093259;28;20044;-78
2023/07/18 01:22:50;;;;;;;4.40;3.05;;;;;;;29.93;46.64;100363.31;5092930;28;20048;-78
2023/07/18 01:25:19;;;;;;;4.77;3.37;;;;;;;29.92;46.39;100361.63;5093278;28;20524;-77
2023/07/18 01:27:49;;;;;;;4.28;3.00;;;;;;;29.91;46.37;100360.75;5093288;28;20135;-78
2023/07/18 01:30:20;;;;;;;4.82;3.20;;;;;;;29.89;46.39;100362.03;5093384;28;20052;-78
2023/07/18 01:32:49;;;;;;;4.75;3.33;;;;;;;29.88;46.27;100355.69;5093104;28;20044;-76
2023/07/18 01:35:19;;;;;;;4.10;3.08;;;;;;;29.88;46.41;100357.59;5092955;28;20139;-78
2023/07/18 01:37:49;;;;;;;4.93;3.40;;;;;;;29.87;46.36;100353.16;5093179;28;20125;-78
2023/07/18 01:40:20;;;;;;;4.05;2.92;;;;;;;29.85;46.31;100355.28;5093042;28;20117;-78
2023/07/18 01:42:51;;;;;;;4.53;3.47;;;;;;;29.85;46.37;100349.78;5092899;28;20492;-78
2023/07/18 01:45:19;;;;;;;6.13;3.50;;;;;;;29.82;46.15;100350.19;5092753;28;20131;-78
2023/07/18 01:47:49;;;;;;;4.93;3.45;;;;;;;29.84;46.37;100350.84;5092655;28;20048;-77
2023/07/18 01:50:18;;;;;;;4.25;3.13;;;;;;;29.83;46.19;100349.16;5093220;28;20051;-77
2023/07/18 01:52:47;;;;;;;4.88;3.15;;;;;;;29.81;46.45;100348.50;5092815;28;20044;-75
2023/07/18 01:55:19;;;;;;;4.35;3.10;;;;;;;29.80;46.38;100347.66;5092692;28;20056;-77
2023/07/18 01:57:49;;;;;;;4.43;3.15;;;;;;;29.80;46.40;100349.56;5092531;28;20048;-76
2023/07/18 02:00:19;;;;;;;5.10;3.28;;;;;;;29.79;46.48;100353.38;5091744;28;20052;-75
2023/07/18 02:02:51;;;;;;;4.90;2.97;;;;;;;29.76;46.30;100353.81;5092796;28;20074;-76
2023/07/18 02:05:24;;;;;;;4.90;3.03;;;;;;;29.74;46.61;100356.78;5092369;28;20493;-77
2023/07/18 02:07:52;;;;;;;4.60;3.10;;;;;;;29.75;46.27;100357.63;5092433;28;20106;-77
2023/07/18 02:10:22;;;;;;;4.57;2.97;;;;;;;29.74;46.47;100361.44;5092187;28;20058;-78
2023/07/18 02:13:01;;;;;;;3.65;2.83;;;;;;;29.72;46.14;100363.53;5092308;28;20055;-77
2023/07/18 02:15:30;;;;;;;5.13;3.63;;;;;;;29.69;46.35;100375.81;5092444;28;20052;-77
2023/07/18 02:17:58;;;;;;;4.60;3.20;;;;;;;29.70;46.28;100384.91;5092290;28;20040;-77
2023/07/18 02:20:27;;;;;;;5.05;3.10;;;;;;;29.69;46.37;100383.22;5092448;28;20127;-77
2023/07/18 02:22:56;;;;;;;4.32;3.13;;;;;;;29.67;46.57;100388.94;5094544;28;20052;-77
2023/07/18 02:25:26;;;;;;;4.63;3.20;;;;;;;29.66;46.24;100383.66;5092015;28;20075;-76
2023/07/18 02:27:54;;;;;;;4.53;2.90;;;;;;;29.64;46.56;100389.38;5091815;28;20143;-77
2023/07/18 02:30:23;;;;;;;5.15;3.20;;;;;;;29.61;46.57;100393.38;5092142;28;20121;-77
2023/07/18 02:32:51;;;;;;;4.18;2.88;;;;;;;29.62;46.48;100397.81;5092056;28;20044;-77
2023/07/18 02:35:21;;;;;;;4.95;3.17;;;;;;;29.60;46.53;100396.34;5092021;28;20047;-77
2023/07/18 02:37:50;;;;;;;4.70;3.30;;;;;;;29.57;46.50;100394.88;5091740;28;20150;-77
2023/07/18 02:40:18;;;;;;;4.50;2.90;;;;;;;29.56;46.43;100392.34;5092053;28;20088;-77
2023/07/18 02:42:48;;;;;;;5.82;3.40;;;;;;;29.56;46.34;100408.81;5091852;28;20055;-77
2023/07/18 02:45:16;;;;;;;5.05;3.13;;;;;;;29.53;46.66;100404.59;5091747;28;20044;-77
2023/07/18 02:47:44;;;;;;;4.70;3.08;;;;;;;29.53;46.65;100421.09;5091722;28;20052;-77
2023/07/18 02:50:13;;;;;;;5.00;3.10;;;;;;;29.51;46.74;100417.69;5091639;28;20131;-77
2023/07/18 02:52:41;;;;;;;4.30;3.20;;;;;;;29.51;46.76;100428.69;5091733;28;20084;-77
2023/07/18 02:55:09;;;;;;;6.30;3.15;;;;;;;29.48;46.83;100418.13;5092552;28;20516;-77
2023/07/18 02:57:38;;;;;;;3.53;2.75;;;;;;;29.46;46.60;100414.72;5091701;28;20460;-77
2023/07/18 03:00:19;;;;;;;4.53;3.00;;;;;;;29.46;46.44;100422.97;5091524;28;20577;-77
2023/07/18 03:02:51;;;;;;;5.33;3.50;;;;;;;29.44;46.50;100427.81;5091414;28;20450;-77
2023/07/18 03:05:21;;;;;;;5.68;3.20;;;;;;;29.35;46.60;100407.13;5091693;28;20414;-77
2023/07/18 03:07:51;;;;;;;4.97;3.10;;;;;;;29.41;46.69;100424.63;5091577;28;20040;-76
2023/07/18 03:10:20;;;;;;;4.72;3.10;;;;;;;29.38;47.01;100423.16;5091276;28;20109;-76
2023/07/18 03:12:49;;;;;;;4.47;3.05;;;;;;;29.34;46.77;100427.41;5095944;28;20043;-77
2023/07/18 03:15:22;;;;;;;5.90;3.22;;;;;;;29.31;46.87;100430.53;5098118;28;20116;-76
2023/07/18 03:17:50;;;;;;;4.63;2.90;;;;;;;29.30;47.02;100434.34;5098676;28;20117;-78
2023/07/18 03:20:19;;;;;;;5.20;3.10;;;;;;;29.26;46.85;100433.09;5098391;28;20090;-76
2023/07/18 03:22:49;;;;;;;4.68;3.50;;;;;;;29.22;46.69;100426.31;5098335;28;20109;-75
2023/07/18 03:25:20;;;;;;;;;;;;;;;29.20;47.00;100429.28;5098604;28;20139;-77
2023/07/18 03:27:49;;;;;;;5.45;3.10;;;;;;;29.19;47.19;100418.50;5098219;28;19920;-76
2023/07/18 03:30:17;;;;;;;5.70;3.33;;;;;;;29.15;47.33;100422.72;5098173;28;20051;-78
2023/07/18 03:32:47;;;;;;;5.18;3.30;;;;;;;29.12;47.70;100417.63;5098040;28;20074;-77
2023/07/18 03:35:15;;;;;;;7.15;3.30;;;;;;;29.13;47.49;100424.81;5098401;28;20485;-77
2023/07/18 03:37:43;;;;;;;4.93;3.22;;;;;;;29.12;47.40;100418.47;5098024;28;20080;-77
2023/07/18 03:40:15;;;;;;;4.80;3.30;;;;;;;29.14;47.57;100426.50;5098071;28;20066;-77
2023/07/18 03:42:44;;;;;;;;;;;;;;;29.12;47.11;100420.38;5098580;28;20131;-76
2023/07/18 03:45:13;;;;;;;6.53;3.05;;;;;;;29.12;47.33;100418.47;5098049;28;20343;-76
2023/07/18 03:47:42;;;;;;;4.85;3.15;;;;;;;29.13;47.07;100424.81;5098101;28;20059;-76
2023/07/18 03:50:14;;;;;;;4.10;2.90;;;;;;;29.12;47.50;100415.75;5097756;28;20087;-77
2023/07/18 03:52:43;;;;;;;6.88;3.60;;;;;;;29.12;47.18;100423.13;5098222;28;20117;-76
2023/07/18 03:55:11;;;;;;;6.38;3.13;;;;;;;29.12;47.52;100426.72;5097679;28;20531;-78
2023/07/18 03:57:41;;;;;;;5.07;3.25;;;;;;;29.10;47.44;100428.84;5097976;28;20039;-79
2023/07/18 04:00:16;;;;;;;5.05;3.30;;;;;;;29.11;47.46;100437.91;5098173;28;20109;-78
2023/07/18 04:02:47;;;;;;;5.15;3.30;;;;;;;29.07;47.54;100432.84;5097711;28;20109;-77
2023/07/18 04:05:18;;;;;;;6.85;3.10;;;;;;;29.07;47.79;100432.00;5097717;28;20044;-78
2023/07/18 04:07:47;;;;;;;5.28;3.30;;;;;;;29.07;47.65;100432.00;5097494;28;20050;-78
2023/07/18 04:10:15;;;;;;;5.60;3.17;;;;;;;29.05;47.48;100436.88;5097602;28;20056;-77
2023/07/18 04:12:44;;;;;;;5.80;3.25;;;;;;;29.06;47.59;100430.31;5097632;28;20093;-77
2023/07/18 04:15:13;;;;;;;8.25;3.75;;;;;;;29.04;48.05;100430.50;5097770;28;20073;-77
2023/07/18 04:17:42;;;;;;;6.07;3.42;;;;;;;29.02;47.66;100427.13;5097689;28;20486;-76
2023/07/18 04:20:11;;;;;;;5.30;3.17;;;;;;;29.02;48.05;100437.25;5097461;28;20054;-75
2023/07/18 04:22:41;;;;;;;5.35;3.42;;;;;;;29.01;47.67;100432.84;5097805;28;20455;-76
2023/07/18 04:25:09;;;;;;;5.43;3.88;;;;;;;28.98;48.10;100431.34;5093430;28;20047;-75
2023/07/18 04:27:38;;;;;;;6.68;3.60;;;;;;;28.99;47.91;100435.78;5094077;28;20048;-75
2023/07/18 04:30:08;;;;;;;5.78;3.03;;;;;;;28.97;48.06;100431.56;5094066;28;20139;-74
2023/07/18 04:32:36;;;;;;;7.10;3.22;;;;;;;28.97;47.81;100431.56;5093978;28;20506;-75
2023/07/18 04:35:06;;;;;;;5.32;3.35;;;;;;;28.92;48.29;100434.91;5094333;28;20494;-75
2023/07/18 04:37:34;;;;;;;5.63;3.40;;;;;;;28.91;48.35;100438.72;5094284;28;20048;-77
2023/07/18 04:40:05;;;;;;;6.15;3.45;;;;;;;28.93;48.18;100446.75;5094232;28;20127;-75
2023/07/18 04:42:34;;;;;;;5.70;3.67;;;;;;;28.90;48.24;100439.78;5093934;28;20063;-75
2023/07/18 04:45:02;;;;;;;5.90;3.70;;;;;;;28.87;48.21;100442.91;5094114;28;20519;-75
2023/07/18 04:47:30;;;;;;;6.40;3.60;;;;;;;28.86;48.06;100446.72;5093848;28;20170;-75
2023/07/18 04:50:00;;;;;;;4.70;3.42;;;;;;;28.86;48.00;100452.22;5087964;28;20059;-74
2023/07/18 04:52:28;;;;;;;5.95;3.33;;;;;;;28.84;48.10;100457.03;5093701;28;20486;-74
2023/07/18 04:54:57;;;;;;;5.85;3.40;;;;;;;28.83;48.28;100451.75;5093739;28;20039;-75
2023/07/18 04:57:26;;;;;;;6.50;3.75;;;;;;;28.83;48.29;100449.00;5075751;28;20079;-74
2023/07/18 04:59:54;;;;;;;8.70;3.88;;;;;;;28.82;48.15;100455.56;5093683;28;20484;-75
2023/07/18 05:02:23;;;;;;;5.32;3.65;;;;;;;28.82;48.25;100455.56;5094004;28;20116;-75
2023/07/18 05:04:51;;;;;;;5.85;3.50;;;;;;;28.80;48.65;100458.50;5093858;28;20051;-75
2023/07/18 05:07:19;;;;;;;5.82;3.38;;;;;;;28.80;48.40;100469.50;5093911;28;20052;-75
2023/07/18 05:09:47;;;;;;;8.02;3.53;;;;;;;28.79;48.42;100471.38;5093270;28;20093;-76
2023/07/18 05:12:15;;;;;;;7.28;3.90;;;;;;;28.75;48.61;100478.31;5093558;28;20069;-76
2023/07/18 05:14:45;;;;;;;7.00;3.70;;;;;;;28.74;48.51;100482.13;5093685;28;20044;-76
2023/07/18 05:17:13;;;;;;;6.90;3.35;;;;;;;28.72;48.56;100491.63;5093549;28;20052;-76
2023/07/18 05:19:42;;;;;;;5.13;3.55;;;;;;;28.71;48.89;100495.44;5093403;28;20079;-76
2023/07/18 05:22:10;;;;;;;6.85;3.60;;;;;;;28.70;48.72;100491.00;5093092;28;20139;-76
2023/07/18 05:24:39;;;;;;;4.70;3.20;;;;;;;28.69;48.94;100500.28;5093444;28;20110;-76
2023/07/18 05:27:08;;;;;;;5.70;3.40;;;;;;;28.68;48.94;100495.84;5093160;28;20081;-77
2023/07/18 05:29:36;;;;;;;6.90;3.80;;;;;;;28.69;48.39;100494.78;5093196;28;20117;-75
2023/07/18 05:32:06;;;;;;;5.43;3.38;;;;;;;28.65;48.68;100501.72;5093423;28;20052;-77
2023/07/18 05:34:34;;;;;;;5.60;3.60;;;;;;;28.65;49.01;100504.47;5092914;28;20055;-70
2023/07/18 05:37:03;;;;;;;5.82;3.72;;;;;;;28.63;48.62;100499.19;5093375;28;20055;-76
2023/07/18 05:39:31;;;;;;;7.68;4.03;;;;;;;28.64;48.93;100503.63;5093745;28;20105;-77
2023/07/18 05:41:59;;;;;;;6.35;3.72;;;;;;;28.63;48.63;100504.66;5094424;28;20153;-76
2023/07/18 05:44:29;;;;;;;5.88;3.80;;;;;;;28.62;49.08;100505.72;5093333;28;20048;-76
2023/07/18 05:46:58;;;;;;;7.03;3.75;;;;;;;28.62;48.75;100502.97;5093067;28;20481;-76
2023/07/18 05:49:28;;;;;;;5.88;3.72;;;;;;;28.62;48.59;100507.63;5092921;28;20677;-76
2023/07/18 05:51:56;;;;;;;7.18;3.80;;;;;;;28.61;48.53;100508.69;5091924;28;20535;-79
2023/07/18 05:54:24;;;;;;;6.10;4.10;;;;;;;28.59;48.94;100513.53;5091499;28;20111;-79
2023/07/18 05:56:52;;;;;;;6.10;3.65;;;;;;;28.60;48.82;100512.47;5092193;28;20142;-79
2023/07/18 05:59:21;;;;;;;5.65;3.97;;;;;;;28.58;48.57;100509.09;5091154;28;20472;-78
2023/07/18 06:01:49;;;;;;;6.22;3.78;;;;;;;28.58;49.05;100503.59;5091963;28;20044;-78
2023/07/18 06:04:17;;;;;;;7.85;4.22;;;;;;;28.59;48.61;100505.28;5092535;28;20142;-75
2023/07/18 06:06:47;;;;;;;5.60;3.75;;;;;;;28.61;48.68;100506.78;5092593;28;20076;-77
2023/07/18 06:09:15;;;;;;;7.15;3.78;;;;;;;28.64;48.90;100513.75;5092311;28;20121;-78
2023/07/18 06:11:43;;;;;;;4.85;3.60;;;;;;;28.66;48.87;100522.63;5092270;28;20051;-76
2023/07/18 06:14:11;;;;;;;7.30;3.63;;;;;;;28.67;48.88;100525.19;5091894;28;20059;-77
2023/07/18 06:16:40;;;;;;;6.80;3.83;;;;;;;28.69;48.46;100527.72;5092026;28;20047;-78
2023/07/18 06:19:08;;;;;;;6.22;3.33;;;;;;;28.70;48.84;100526.66;5091899;28;20063;-78
2023/07/18 06:21:36;;;;;;;5.47;3.63;;;;;;;28.69;48.65;100527.72;5091993;28;20083;-77
2023/07/18 06:24:07;;;;;;;6.63;3.97;;;;;;;28.69;48.87;100533.22;5091898;28;20044;-77
2023/07/18 06:26:48;;;;;;;6.90;4.13;;;;;;;28.69;48.46;100539.53;5091996;28;20048;-77
2023/07/18 06:29:18;;;;;;;6.22;3.78;;;;;;;28.68;48.96;100531.53;5091949;28;20412;-80
2023/07/18 06:31:46;;;;;;;8.48;4.00;;;;;;;28.68;48.62;100526.03;5091810;28;20109;-79
2023/07/18 06:34:16;;;;;;;7.18;3.60;;;;;;;28.69;48.48;100522.22;5091719;28;20126;-77
2023/07/18 06:36:45;;;;;;;6.63;3.90;;;;;;;28.69;48.63;100520.34;5092100;28;20077;-77
2023/07/18 06:39:16;;;;;;;5.70;3.90;;;;;;;28.72;48.67;100530.06;5092059;28;20044;-77
2023/07/18 06:41:45;;;;;;;5.70;3.42;;;;;;;28.73;48.47;100526.25;5091182;28;20413;-76
2023/07/18 06:44:14;;;;;;;4.80;3.53;;;;;;;28.73;48.21;100526.25;5091505;28;20052;-71
2023/07/18 06:46:43;;;;;;;9.85;3.85;;;;;;;28.77;48.34;100522.06;5090652;28;20051;-71
2023/07/18 06:49:13;;;;;;;9.35;3.30;;;;;;;28.77;48.24;100520.16;5091340;28;20806;-77
2023/07/18 06:51:41;;;;;;;6.05;3.58;;;;;;;28.77;48.53;100525.66;5091182;28;20079;-75
2023/07/18 06:54:09;;;;;;;5.60;3.60;;;;;;;28.78;47.99;100537.47;5090558;28;20139;-74
2023/07/18 06:56:40;;;;;;;5.60;3.53;;;;;;;28.79;48.32;100536.44;5090174;28;20048;-75
2023/07/18 06:59:08;;;;;;;7.55;3.88;;;;;;;28.79;48.14;100540.00;5091043;28;20320;-74
2023/07/18 07:01:37;;;;;;;8.00;3.95;;;;;;;28.80;48.01;100543.59;5090935;28;20048;-74
2023/07/18 07:04:05;;;;;;;4.85;3.47;;;;;;;28.80;48.51;100547.19;5090718;28;20047;-74
2023/07/18 07:06:33;;;;;;;6.43;3.85;;;;;;;28.80;48.26;100541.72;5091281;28;20105;-74
2023/07/18 07:09:01;;;;;;;9.35;3.55;;;;;;;28.83;48.30;100548.69;5091058;28;20060;-74
2023/07/18 07:11:29;;;;;;;6.25;3.83;;;;;;;28.84;48.24;100546.78;5091046;28;20048;-74
2023/07/18 07:13:59;;;;;;;6.30;3.72;;;;;;;28.85;48.03;100554.81;5091383;28;20048;-74
2023/07/18 07:16:27;;;;;;;6.28;3.90;;;;;;;28.85;47.97;100565.78;5091200;28;20055;-73
2023/07/18 07:18:55;;;;;;;6.93;3.97;;;;;;;28.84;47.87;100564.09;5091226;28;20485;-73
2023/07/18 07:21:24;;;;;;;5.20;3.60;;;;;;;28.86;48.08;100564.75;5091198;28;20044;-74
2023/07/18 07:23:53;;;;;;;7.35;3.97;;;;;;;28.86;47.95;100562.03;5091181;28;20068;-74
2023/07/18 07:26:25;;;;;;;5.73;4.27;;;;;;;28.86;47.88;100559.28;5091052;28;20555;-75
2023/07/18 07:28:53;;;;;;;7.38;3.78;;;;;;;28.86;47.61;100567.50;5091182;28;20047;-75
2023/07/18 07:31:23;;;;;;;7.90;3.60;;;;;;;28.87;47.35;100573.84;5091253;28;20048;-75
2023/07/18 07:33:53;;;;;;;6.93;3.97;;;;;;;28.86;47.41;100567.50;5091215;28;20044;-75
2023/07/18 07:36:21;;;;;;;6.70;4.00;;;;;;;28.88;47.21;100561.81;5091102;28;20146;-75
2023/07/18 07:38:49;;;;;;;7.50;3.78;;;;;;;28.88;47.42;100559.91;5090849;28;20050;-75
2023/07/18 07:41:17;;;;;;;6.35;3.63;;;;;;;28.89;47.36;100561.63;5091098;28;20048;-74
2023/07/18 07:43:46;;;;;;;5.63;3.83;;;;;;;28.90;47.11;100563.31;5090980;28;20507;-74
2023/07/18 07:46:14;;;;;;;7.07;3.83;;;;;;;28.92;46.51;100565.84;5090808;28;20148;-74
2023/07/18 07:48:44;;;;;;;5.90;4.07;;;;;;;28.91;46.71;100566.91;5091029;28;20044;-74
2023/07/18 07:51:14;;;;;;;6.80;3.83;;;;;;;28.91;46.25;100567.75;5090692;28;20093;-72
2023/07/18 07:53:43;;;;;;;7.13;4.10;;;;;;;28.93;46.22;100567.56;5090963;28;20052;-75
2023/07/18 07:56:11;;;;;;;5.68;3.70;;;;;;;28.92;46.02;100566.72;5090772;28;20548;-75
2023/07/18 07:58:39;;;;;;;7.07;4.05;;;;;;;28.94;46.59;100570.09;5091248;28;20151;-75
2023/07/18 08:01:10;;;;;;;6.22;4.13;;;;;;;28.95;46.10;100571.81;5094759;28;20075;-75
2023/07/18 08:03:38;;;;;;;6.82;3.90;;;;;;;28.97;46.20;100574.34;5094543;28;20048;-75
2023/07/18 08:06:08;;;;;;;6.18;3.70;;;;;;;28.99;46.04;100575.81;5094461;28;20074;-74
2023/07/18 08:08:36;;;;;;;6.88;3.70;;;;;;;28.99;45.48;100570.34;5094662;28;20098;-75
2023/07/18 08:11:05;;;;;;;7.10;3.88;;;;;;;29.00;45.25;100571.19;5094623;28;20109;-75
2023/07/18 08:13:33;;;;;;;6.20;4.00;;;;;;;29.00;45.38;100574.78;5094385;28;20524;-75
2023/07/18 08:16:01;;;;;;;5.35;3.90;;;;;;;29.02;45.42;100572.66;5094508;28;20046;-74
2023/07/18 08:18:29;;;;;;;6.00;3.38;;;;;;;29.04;45.46;100573.28;5094272;28;20055;-74
2023/07/18 08:20:57;;;;;;;6.07;3.50;;;;;;;29.05;45.31;100580.50;5094439;28;20052;-74
2023/07/18 08:23:27;;;;;;;7.07;3.83;;;;;;;29.07;45.00;100569.31;5094412;28;20082;-74
2023/07/18 08:25:55;;;;;;;5.38;3.72;;;;;;;29.08;44.63;100571.00;5094140;28;20044;-75
2023/07/18 08:28:24;;;;;;;6.18;3.90;;;;;;;29.08;44.72;100577.34;5094209;28;20105;-75
2023/07/18 08:30:52;;;;;;;7.03;4.00;;;;;;;29.11;44.62;100567.00;5093997;28;20473;-75
2023/07/18 08:33:21;;;;;;;6.18;3.38;;;;;;;29.13;44.35;100568.47;5093971;28;20047;-75
2023/07/18 08:35:50;;;;;;;6.70;4.00;;;;;;;29.14;44.21;100580.31;5094429;28;20048;-74
2023/07/18 08:38:19;;;;;;;6.15;3.50;;;;;;;29.15;43.94;100576.53;5094169;28;20105;-75
2023/07/18 08:40:49;;;;;;;8.23;3.90;;;;;;;29.17;43.87;100580.75;5093885;28;20048;-75
2023/07/18 08:43:18;;;;;;;5.65;3.83;;;;;;;29.18;43.88;100578.84;5093834;28;20117;-74
2023/07/18 08:45:47;;;;;;;5.45;3.42;;;;;;;29.19;43.79;100569.56;5093670;28;20048;-76
2023/07/18 08:48:15;;;;;;;7.03;3.85;;;;;;;29.19;42.97;100566.81;5093469;28;20076;-74
2023/07/18 08:50:45;;;;;;;6.53;3.90;;;;;;;29.19;43.19;100572.31;5093684;28;20059;-74
2023/07/18 08:53:13;;;;;;;5.85;3.47;;;;;;;29.20;43.13;100566.59;5093705;28;20219;-74
2023/07/18 08:55:42;;;;;;;6.53;3.63;;;;;;;29.20;42.56;100558.38;5093581;28;20050;-76
2023/07/18 08:58:11;;;;;;;7.22;3.88;;;;;;;29.25;42.67;100563.25;5093466;28;20071;-76
2023/07/18 09:00:39;;;;;;;6.85;3.63;;;;;;;29.24;42.97;100567.91;5093744;28;20048;-75
2023/07/18 09:03:09;;;;;;;5.47;3.60;;;;;;;29.25;43.01;100560.50;5093625;28;20044;-75
2023/07/18 09:05:39;;;;;;;8.00;4.18;;;;;;;29.27;42.68;100574.88;5093040;28;20135;-75
2023/07/18 09:08:07;;;;;;;7.53;3.78;;;;;;;29.28;43.00;100565.59;5093495;28;20587;-76
2023/07/18 09:10:36;;;;;;;5.75;3.67;;;;;;;29.29;42.90;100561.78;5092721;28;20075;-75
2023/07/18 09:13:07;;;;;;;5.97;3.78;;;;;;;29.30;42.77;100557.97;5093329;28;20268;-75
2023/07/18 09:15:38;;;;;;;5.75;3.90;;;;;;;29.30;42.44;100555.22;5093704;28;20047;-76
2023/07/18 09:18:08;;;;;;;6.20;3.80;;;;;;;29.32;42.52;100555.84;5093288;28;20485;-75
2023/07/18 09:20:37;;;;;;;5.38;3.38;;;;;;;29.34;42.73;100559.28;5093354;28;20043;-77
2023/07/18 09:23:05;;;;;;;6.53;3.83;;;;;;;29.35;42.85;100561.81;5093227;28;20097;-75
2023/07/18 09:25:39;;;;;;;5.03;3.40;;;;;;;29.36;42.29;100548.91;5092900;28;20115;-75
2023/07/18 09:28:11;;;;;;;6.30;3.88;;;;;;;29.37;42.61;100556.09;5092920;28;20039;-76
2023/07/18 09:30:41;;;;;;;5.47;3.70;;;;;;;29.38;42.22;100552.28;5092623;28;20040;-76
2023/07/18 09:33:09;;;;;;;5.70;3.53;;;;;;;29.40;41.88;100550.19;5092712;28;20301;-75
2023/07/18 09:35:39;;;;;;;6.55;3.60;;;;;;;29.41;42.23;100556.53;5092801;28;20135;-76
2023/07/18 09:38:08;;;;;;;5.70;3.70;;;;;;;29.41;41.64;100557.38;5092703;28;20090;-76
2023/07/18 09:40:37;;;;;;;6.97;4.15;;;;;;;29.42;41.73;100556.31;5092854;28;20497;-76
2023/07/18 09:43:06;;;;;;;5.72;3.70;;;;;;;29.44;42.13;100548.72;5092835;28;20080;-76
2023/07/18 09:45:36;;;;;;;5.80;3.53;;;;;;;29.45;41.49;100550.41;5092562;28;20050;-76
2023/07/18 09:48:07;;;;;;;8.52;3.92;;;;;;;29.47;40.67;100537.31;5092450;28;20044;-76
2023/07/18 09:50:39;;;;;;;5.32;3.90;;;;;;;29.46;39.94;100541.13;5092597;28;20055;-76
2023/07/18 09:53:13;;;;;;;6.63;3.72;;;;;;;29.49;39.39;100545.38;5108242;28;20058;-77
2023/07/18 09:55:42;;;;;;;6.78;4.05;;;;;;;29.50;39.33;100542.41;5092588;28;20087;-76
2023/07/18 09:58:13;;;;;;;5.28;3.72;;;;;;;29.51;39.20;100535.84;5092545;28;20055;-76
2023/07/18 10:00:43;;;;;;;6.88;4.00;;;;;;;29.52;39.13;100529.31;5092383;28;20455;-75
2023/07/18 10:03:16;;;;;;;6.43;3.83;;;;;;;29.53;39.03;100528.28;5092277;28;20139;-75
2023/07/18 10:05:44;;;;;;;6.40;3.92;;;;;;;29.54;38.71;100520.88;5092401;28;20044;-76
2023/07/18 10:08:13;;;;;;;6.80;3.72;;;;;;;29.54;38.88;100521.72;5092495;28;20048;-76
2023/07/18 10:10:41;;;;;;;6.55;3.13;;;;;;;29.57;39.29;100514.94;5092220;28;20044;-76
2023/07/18 10:13:09;;;;;;;5.70;3.72;;;;;;;29.58;39.29;100519.38;5092084;28;20529;-76
2023/07/18 10:16:11;;;;;;;6.10;3.42;;;;;;;29.59;39.69;100508.19;5092200;28;20112;-75
2023/07/18 10:18:46;;;;;;;5.70;3.60;;;;;;;29.59;39.26;100513.66;5092408;28;20048;-74
2023/07/18 10:21:27;;;;;;;7.43;3.72;;;;;;;29.60;39.45;100507.13;5091504;28;20052;-75
2023/07/18 10:23:56;;;;;;;7.95;3.80;;;;;;;29.61;37.32;100500.56;5091886;28;20482;-74
2023/07/18 10:26:31;;;;;;;6.32;3.70;;;;;;;29.62;37.16;100518.75;5091814;28;20089;-75
2023/07/18 10:29:02;;;;;;;6.13;3.47;;;;;;;29.64;37.47;100519.41;5092095;28;20048;-75
2023/07/18 10:31:33;;;;;;;7.07;3.70;;;;;;;29.64;37.35;100504.81;5092041;28;20052;-75
2023/07/18 10:34:09;;;;;;;5.78;3.53;;;;;;;29.66;36.76;100507.34;5091683;28;20146;-75
2023/07/18 10:36:38;;;;;;;6.40;3.70;;;;;;;29.68;36.81;100499.72;5091360;28;20052;-75
2023/07/18 10:39:12;;;;;;;6.03;3.50;;;;;;;29.68;36.13;100494.22;5091743;28;20040;-75
2023/07/18 10:41:44;;;;;;;5.65;3.42;;;;;;;29.68;36.02;100485.97;5091799;28;20048;-76
2023/07/18 10:44:13;;;;;;;5.97;3.37;;;;;;;29.69;36.50;100490.41;5091855;28;20412;-75
2023/07/18 10:46:43;;;;;;;7.05;3.60;;;;;;;29.69;36.82;100490.41;5091541;28;20345;-75
2023/07/18 10:49:14;;;;;;;6.95;3.65;;;;;;;29.72;35.75;100484.50;5091465;28;20066;-75
2023/07/18 10:51:42;;;;;;;6.53;3.70;;;;;;;29.73;35.60;100480.72;5091735;28;20048;-75
2023/07/18 10:54:11;;;;;;;7.68;3.40;;;;;;;29.73;35.50;100478.81;5091464;28;20489;-75
2023/07/18 10:56:39;;;;;;;5.35;3.60;;;;;;;29.74;34.74;100476.91;5091366;28;20483;-76
2023/07/18 10:59:07;;;;;;;6.47;3.72;;;;;;;29.76;34.53;100475.63;5091464;28;20048;-74
2023/07/18 11:01:36;;;;;;;6.40;3.65;;;;;;;29.77;34.54;100460.81;5091297;28;20048;-76
2023/07/18 11:04:10;;;;;;;5.38;3.50;;;;;;;29.80;33.98;100459.53;5091642;28;20044;-75
2023/07/18 11:06:49;;;;;;;5.63;3.70;;;;;;;29.82;34.39;100469.28;5091457;28;20412;-75
2023/07/18 11:09:17;;;;;;;5.53;3.40;;;;;;;29.85;34.25;100462.50;5091227;28;20125;-76
2023/07/18 11:11:49;;;;;;;8.48;4.28;;;;;;;29.87;34.03;100461.22;5091345;28;20139;-75
2023/07/18 11:14:18;;;;;;;9.30;3.78;;;;;;;29.90;34.96;100454.44;5091190;28;20382;-75
2023/07/18 11:16:47;;;;;;;5.60;3.50;;;;;;;29.92;35.12;100452.34;5091428;28;20048;-75
2023/07/18 11:19:15;;;;;;;5.20;3.72;;;;;;;29.94;35.34;100450.22;5091475;28;20702;-76
2023/07/18 11:21:45;;;;;;;6.43;3.35;;;;;;;29.96;35.83;100444.50;5091271;28;20051;-76
2023/07/18 11:24:13;;;;;;;6.15;3.35;;;;;;;29.99;35.97;100442.16;5091312;28;20067;-76
2023/07/18 11:26:42;;;;;;;7.82;3.95;;;;;;;30.01;35.45;100444.69;5091148;28;20139;-76
2023/07/18 11:29:10;;;;;;;9.82;3.55;;;;;;;30.04;34.63;100438.78;5091514;28;20052;-76
2023/07/18 11:31:40;;;;;;;6.30;3.50;;;;;;;30.07;34.87;100441.97;5091252;28;20054;-76
2023/07/18 11:34:10;;;;;;;5.90;3.45;;;;;;;30.09;34.66;100431.59;5094265;28;20048;-75
2023/07/18 11:36:41;;;;;;;5.70;3.53;;;;;;;30.11;34.73;100429.50;5095230;28;20133;-75